Time,TemperatureF,DewpointF,PressureIn,WindDirection,WindDirectionDegrees,WindSpeedMPH,WindSpeedGustMPH,Humidity,HourlyPrecipIn,Conditions,Clouds,dailyrainin,SoftwareType,DateUTC
2013-05-02 00:02:00,44.2,34.0,30.25,ENE,67,4.0,6.0,67,0.00,,,0.00,meteohub,2013-05-01 23:02:00,
2013-05-02 00:07:00,44.1,33.8,30.25,East,90,6.0,9.0,67,0.00,,,0.00,meteohub,2013-05-01 23:07:00,
2013-05-02 00:12:00,43.9,33.6,30.25,East,90,3.0,9.0,67,0.00,,,0.00,meteohub,2013-05-01 23:12:00,
2013-05-02 00:17:00,43.7,33.4,30.25,NE,45,4.0,9.0,67,0.00,,,0.00,meteohub,2013-05-01 23:17:00,
2013-05-02 00:23:00,43.7,33.8,30.25,East,90,3.0,7.0,68,0.00,,,0.00,meteohub,2013-05-01 23:23:00,
2013-05-02 00:28:00,43.5,33.6,30.25,ENE,67,4.0,7.0,68,0.00,,,0.00,meteohub,2013-05-01 23:28:00,
2013-05-02 00:33:00,43.3,33.8,30.25,ENE,67,3.0,7.0,69,0.00,,,0.00,meteohub,2013-05-01 23:33:00,
2013-05-02 00:38:00,43.2,33.6,30.25,NE,45,6.0,7.0,69,0.00,,,0.00,meteohub,2013-05-01 23:38:00,
2013-05-02 00:43:00,43.0,33.8,30.25,ENE,67,5.0,7.0,70,0.00,,,0.00,meteohub,2013-05-01 23:43:00,
2013-05-02 00:48:00,42.8,33.6,30.25,East,90,6.0,6.0,70,0.00,,,0.00,meteohub,2013-05-01 23:48:00,
2013-05-02 00:53:00,42.6,33.8,30.25,ENE,67,4.0,6.0,71,0.00,,,0.00,meteohub,2013-05-01 23:53:00,
2013-05-02 00:58:00,42.4,33.6,30.25,ENE,67,4.0,6.0,71,0.00,,,0.00,meteohub,2013-05-01 23:58:00,
2013-05-02 01:03:00,42.3,33.6,30.25,ENE,67,3.0,6.0,71,0.00,,,0.00,meteohub,2013-05-02 00:03:00,
2013-05-02 01:08:00,42.3,33.6,30.25,East,90,2.0,6.0,71,0.00,,,0.00,meteohub,2013-05-02 00:08:00,
2013-05-02 01:14:00,42.1,33.8,30.25,East,90,3.0,6.0,72,0.00,,,0.00,meteohub,2013-05-02 00:14:00,
2013-05-02 01:19:00,41.9,33.6,30.25,East,90,3.0,6.0,72,0.00,,,0.00,meteohub,2013-05-02 00:19:00,
2013-05-02 01:24:00,41.7,33.4,30.25,East,90,2.0,5.0,72,0.00,,,0.00,meteohub,2013-05-02 00:24:00,
2013-05-02 01:29:00,41.5,33.3,30.25,ENE,67,0.0,4.0,72,0.00,,,0.00,meteohub,2013-05-02 00:29:00,
2013-05-02 01:34:00,41.2,32.9,30.22,ENE,67,0.0,3.0,72,0.00,,,0.00,meteohub,2013-05-02 00:34:00,
2013-05-02 01:39:00,41.0,32.7,30.22,NNE,22,0.0,3.0,72,0.00,,,0.00,meteohub,2013-05-02 00:39:00,
2013-05-02 01:44:00,40.5,32.2,30.22,North,0,0.0,0.0,72,0.00,,,0.00,meteohub,2013-05-02 00:44:00,
2013-05-02 01:49:00,40.3,32.4,30.22,East,90,0.0,0.0,73,0.00,,,0.00,meteohub,2013-05-02 00:49:00,
2013-05-02 01:54:00,40.1,32.2,30.22,East,90,0.0,0.0,73,0.00,,,0.00,meteohub,2013-05-02 00:54:00,
2013-05-02 01:59:00,39.9,32.0,30.22,ESE,112,0.0,0.0,73,0.00,,,0.00,meteohub,2013-05-02 00:59:00,
2013-05-02 02:04:00,39.7,31.8,30.22,SSE,157,0.0,0.0,73,0.00,,,0.00,meteohub,2013-05-02 01:04:00,
2013-05-02 02:10:00,39.7,32.2,30.22,SSE,157,0.0,0.0,74,0.00,,,0.00,meteohub,2013-05-02 01:10:00,
2013-05-02 02:15:00,39.6,32.0,30.22,SSE,157,0.0,0.0,74,0.00,,,0.00,meteohub,2013-05-02 01:15:00,
2013-05-02 02:20:00,39.4,31.8,30.22,SSE,157,0.0,3.0,74,0.00,,,0.00,meteohub,2013-05-02 01:20:00,
2013-05-02 02:25:00,39.4,32.2,30.22,SSW,202,3.0,3.0,75,0.00,,,0.00,meteohub,2013-05-02 01:25:00,
2013-05-02 02:30:00,39.4,32.2,30.22,South,180,2.0,4.0,75,0.00,,,0.00,meteohub,2013-05-02 01:30:00,
2013-05-02 02:35:00,39.4,32.2,30.22,SSW,202,3.0,4.0,75,0.00,,,0.00,meteohub,2013-05-02 01:35:00,
2013-05-02 02:40:00,39.2,32.4,30.22,South,180,2.0,4.0,76,0.00,,,0.00,meteohub,2013-05-02 01:40:00,
2013-05-02 02:45:00,39.2,32.4,30.22,SSW,202,2.0,4.0,76,0.00,,,0.00,meteohub,2013-05-02 01:45:00,
2013-05-02 02:50:00,39.2,32.4,30.22,South,180,0.0,4.0,76,0.00,,,0.00,meteohub,2013-05-02 01:50:00,
2013-05-02 02:55:00,39.0,32.2,30.22,ENE,67,2.0,3.0,76,0.00,,,0.00,meteohub,2013-05-02 01:55:00,
2013-05-02 03:01:00,39.0,32.2,30.22,NE,45,0.0,3.0,76,0.00,,,0.00,meteohub,2013-05-02 02:01:00,
2013-05-02 03:06:00,38.8,32.0,30.22,NE,45,0.0,2.0,76,0.00,,,0.00,meteohub,2013-05-02 02:06:00,
2013-05-02 03:11:00,38.7,31.8,30.22,ESE,112,0.0,2.0,76,0.00,,,0.00,meteohub,2013-05-02 02:11:00,
2013-05-02 03:16:00,38.5,31.6,30.22,North,0,0.0,0.0,76,0.00,,,0.00,meteohub,2013-05-02 02:16:00,
2013-05-02 03:21:00,38.5,31.8,30.22,East,90,4.0,4.0,77,0.00,,,0.00,meteohub,2013-05-02 02:21:00,
2013-05-02 03:26:00,38.3,31.6,30.22,SE,135,3.0,4.0,77,0.00,,,0.00,meteohub,2013-05-02 02:26:00,
2013-05-02 03:31:00,38.1,31.8,30.22,SE,135,3.0,4.0,78,0.00,,,0.00,meteohub,2013-05-02 02:31:00,
2013-05-02 03:36:00,38.1,31.6,30.22,ESE,112,0.0,4.0,77,0.00,,,0.00,meteohub,2013-05-02 02:36:00,
2013-05-02 03:41:00,38.1,31.6,30.22,SE,135,2.0,4.0,77,0.00,,,0.00,meteohub,2013-05-02 02:41:00,
2013-05-02 03:46:00,37.9,31.5,30.22,SSE,157,0.0,4.0,77,0.00,,,0.00,meteohub,2013-05-02 02:46:00,
2013-05-02 03:51:00,37.6,31.1,30.22,SSE,157,0.0,3.0,77,0.00,,,0.00,meteohub,2013-05-02 02:51:00,
2013-05-02 03:57:00,37.4,30.9,30.22,WSW,247,0.0,3.0,77,0.00,,,0.00,meteohub,2013-05-02 02:57:00,
2013-05-02 04:02:00,37.2,30.7,30.22,WSW,247,0.0,0.0,77,0.00,,,0.00,meteohub,2013-05-02 03:02:00,
2013-05-02 04:07:00,37.0,30.6,30.22,WSW,247,0.0,0.0,77,0.00,,,0.00,meteohub,2013-05-02 03:07:00,
2013-05-02 04:12:00,37.0,30.7,30.22,WSW,247,0.0,0.0,78,0.00,,,0.00,meteohub,2013-05-02 03:12:00,
2013-05-02 04:17:00,36.9,30.6,30.22,WSW,247,0.0,0.0,78,0.00,,,0.00,meteohub,2013-05-02 03:17:00,
2013-05-02 04:22:00,36.9,30.6,30.22,WSW,247,0.0,0.0,78,0.00,,,0.00,meteohub,2013-05-02 03:22:00,
2013-05-02 04:27:00,36.9,30.6,30.22,WSW,247,0.0,0.0,78,0.00,,,0.00,meteohub,2013-05-02 03:27:00,
2013-05-02 04:32:00,36.9,30.6,30.22,WSW,247,0.0,0.0,78,0.00,,,0.00,meteohub,2013-05-02 03:32:00,
2013-05-02 04:37:00,36.9,30.9,30.22,WSW,247,0.0,0.0,79,0.00,,,0.00,meteohub,2013-05-02 03:37:00,
2013-05-02 04:42:00,36.7,30.6,30.22,WSW,247,0.0,0.0,78,0.00,,,0.00,meteohub,2013-05-02 03:42:00,
2013-05-02 04:47:00,36.7,30.7,30.22,WSW,247,0.0,0.0,79,0.00,,,0.00,meteohub,2013-05-02 03:47:00,
2013-05-02 04:52:00,36.7,30.7,30.22,WSW,247,0.0,0.0,79,0.00,,,0.00,meteohub,2013-05-02 03:52:00,
2013-05-02 04:57:00,36.7,30.7,30.22,SW,225,0.0,0.0,79,0.00,,,0.00,meteohub,2013-05-02 03:57:00,
2013-05-02 05:01:00,36.7,30.7,30.22,SSE,157,0.0,0.0,79,0.00,,,0.00,meteohub,2013-05-02 04:01:00,
2013-05-02 05:02:00,36.7,30.7,30.22,SSE,157,0.0,0.0,79,0.00,,,0.00,meteohub,2013-05-02 04:02:00,
2013-05-02 05:05:00,36.5,30.6,30.22,SSE,157,0.0,0.0,79,0.00,,,0.00,meteohub,2013-05-02 04:05:00,
2013-05-02 05:10:00,36.3,30.4,30.22,SSE,157,0.0,0.0,79,0.00,,,0.00,meteohub,2013-05-02 04:10:00,
2013-05-02 05:15:00,36.3,30.4,30.22,SW,225,3.0,3.0,79,0.00,,,0.00,meteohub,2013-05-02 04:15:00,
2013-05-02 05:20:00,36.1,30.2,30.22,SW,225,2.0,3.0,79,0.00,,,0.00,meteohub,2013-05-02 04:20:00,
2013-05-02 05:25:00,36.1,30.2,30.22,SW,225,0.0,3.0,79,0.00,,,0.00,meteohub,2013-05-02 04:25:00,
2013-05-02 05:30:00,36.1,30.2,30.22,SW,225,0.0,3.0,79,0.00,,,0.00,meteohub,2013-05-02 04:30:00,
2013-05-02 05:35:00,36.1,30.2,30.22,WSW,247,0.0,2.0,79,0.00,,,0.00,meteohub,2013-05-02 04:35:00,
2013-05-02 05:40:00,36.0,30.0,30.22,WSW,247,0.0,0.0,79,0.00,,,0.00,meteohub,2013-05-02 04:40:00,
2013-05-02 05:46:00,36.0,30.0,30.22,WSW,247,0.0,0.0,79,0.00,,,0.00,meteohub,2013-05-02 04:46:00,
2013-05-02 05:51:00,36.0,30.0,30.22,SW,225,0.0,0.0,79,0.00,,,0.00,meteohub,2013-05-02 04:51:00,
2013-05-02 05:56:00,36.1,30.6,30.22,SW,225,0.0,2.0,80,0.00,,,0.00,meteohub,2013-05-02 04:56:00,
2013-05-02 06:01:00,36.1,30.6,30.22,SW,225,0.0,2.0,80,0.00,,,0.00,meteohub,2013-05-02 05:01:00,
2013-05-02 06:06:00,36.1,30.9,30.22,SW,225,0.0,2.0,81,0.00,,,0.00,meteohub,2013-05-02 05:06:00,
2013-05-02 06:11:00,36.1,30.6,30.22,SW,225,0.0,0.0,80,0.00,,,0.00,meteohub,2013-05-02 05:11:00,
2013-05-02 06:16:00,36.1,30.9,30.22,SW,225,0.0,0.0,81,0.00,,,0.00,meteohub,2013-05-02 05:16:00,
2013-05-02 06:21:00,36.3,31.1,30.22,WSW,247,0.0,0.0,81,0.00,,,0.00,meteohub,2013-05-02 05:21:00,
2013-05-02 06:26:00,36.3,31.1,30.22,ENE,67,2.0,0.0,81,0.00,,,0.00,meteohub,2013-05-02 05:26:00,
2013-05-02 06:31:00,36.5,31.8,30.22,ESE,112,0.0,3.0,83,0.00,,,0.00,meteohub,2013-05-02 05:31:00,
2013-05-02 06:37:00,36.7,32.0,30.22,ESE,112,2.0,3.0,83,0.00,,,0.00,meteohub,2013-05-02 05:37:00,
2013-05-02 06:42:00,36.9,32.2,30.22,ESE,112,0.0,3.0,83,0.00,,,0.00,meteohub,2013-05-02 05:42:00,
2013-05-02 06:47:00,36.9,32.2,30.22,ESE,112,0.0,2.0,83,0.00,,,0.00,meteohub,2013-05-02 05:47:00,
2013-05-02 06:52:00,37.2,32.5,30.22,ESE,112,0.0,2.0,83,0.00,,,0.00,meteohub,2013-05-02 05:52:00,
2013-05-02 06:57:00,37.4,32.7,30.22,ESE,112,3.0,0.0,83,0.00,,,0.00,meteohub,2013-05-02 05:57:00,
2013-05-02 07:02:00,37.6,32.9,30.22,South,180,0.0,3.0,83,0.00,,,0.00,meteohub,2013-05-02 06:02:00,
2013-05-02 07:07:00,37.8,33.1,30.22,South,180,0.0,3.0,83,0.00,,,0.00,meteohub,2013-05-02 06:07:00,
2013-05-02 07:12:00,37.9,33.3,30.22,South,180,0.0,3.0,83,0.00,,,0.00,meteohub,2013-05-02 06:12:00,
2013-05-02 07:17:00,38.1,33.4,30.22,South,180,0.0,0.0,83,0.00,,,0.00,meteohub,2013-05-02 06:17:00,
2013-05-02 07:22:00,38.3,33.6,30.22,South,180,0.0,0.0,83,0.00,,,0.00,meteohub,2013-05-02 06:22:00,
2013-05-02 07:27:00,38.5,33.8,30.22,South,180,0.0,0.0,83,0.00,,,0.00,meteohub,2013-05-02 06:27:00,
2013-05-02 07:32:00,38.7,34.0,30.22,South,180,0.0,0.0,83,0.00,,,0.00,meteohub,2013-05-02 06:32:00,
2013-05-02 07:37:00,38.8,33.8,30.22,South,180,0.0,0.0,82,0.00,,,0.00,meteohub,2013-05-02 06:37:00,
2013-05-02 07:42:00,39.0,34.0,30.22,SSW,202,0.0,3.0,82,0.00,,,0.00,meteohub,2013-05-02 06:42:00,
2013-05-02 07:47:00,39.4,34.3,30.22,SSW,202,0.0,3.0,82,0.00,,,0.00,meteohub,2013-05-02 06:47:00,
2013-05-02 07:52:00,39.6,34.5,30.22,SW,225,0.0,3.0,82,0.00,,,0.00,meteohub,2013-05-02 06:52:00,
2013-05-02 07:57:00,39.9,34.9,30.22,West,270,3.0,3.0,82,0.00,,,0.00,meteohub,2013-05-02 06:57:00,
2013-05-02 08:02:00,40.3,35.2,30.22,South,180,0.0,4.0,82,0.00,,,0.00,meteohub,2013-05-02 07:02:00,
2013-05-02 08:07:00,40.8,35.8,30.22,WSW,247,2.0,4.0,82,0.00,,,0.00,meteohub,2013-05-02 07:07:00,
2013-05-02 08:12:00,41.4,36.0,30.22,SW,225,0.0,4.0,81,0.00,,,0.00,meteohub,2013-05-02 07:12:00,
2013-05-02 08:17:00,42.1,36.7,30.22,South,180,0.0,4.0,81,0.00,,,0.00,meteohub,2013-05-02 07:17:00,
2013-05-02 08:23:00,42.3,36.1,30.22,SSW,202,3.0,4.0,79,0.00,,,0.00,meteohub,2013-05-02 07:23:00,
2013-05-02 08:28:00,42.8,36.5,30.22,WSW,247,0.0,4.0,78,0.00,,,0.00,meteohub,2013-05-02 07:28:00,
2013-05-02 08:33:00,43.0,36.7,30.22,West,270,0.0,4.0,78,0.00,,,0.00,meteohub,2013-05-02 07:33:00,
2013-05-02 08:38:00,43.5,36.5,30.22,ESE,112,0.0,4.0,76,0.00,,,0.00,meteohub,2013-05-02 07:38:00,
2013-05-02 08:43:00,43.9,36.1,30.22,SE,135,3.0,3.0,74,0.00,,,0.00,meteohub,2013-05-02 07:43:00,
2013-05-02 08:48:00,44.4,36.7,30.22,SE,135,3.0,4.0,74,0.00,,,0.00,meteohub,2013-05-02 07:48:00,
2013-05-02 08:53:00,45.0,37.2,30.22,SE,135,0.0,4.0,74,0.00,,,0.00,meteohub,2013-05-02 07:53:00,
2013-05-02 08:58:00,45.3,36.9,30.22,SSW,202,0.0,4.0,72,0.00,,,0.00,meteohub,2013-05-02 07:58:00,
2013-05-02 09:03:00,45.7,37.2,30.22,South,180,3.0,4.0,72,0.00,,,0.00,meteohub,2013-05-02 08:03:00,
2013-05-02 09:08:00,45.9,36.3,30.22,SE,135,4.0,4.0,69,0.00,,,0.00,meteohub,2013-05-02 08:08:00,
2013-05-02 09:14:00,46.0,36.5,30.22,SSW,202,1.0,6.0,69,0.00,,,0.00,meteohub,2013-05-02 08:14:00,
2013-05-02 09:19:00,46.2,36.7,30.22,ESE,112,0.0,6.0,69,0.00,,,0.00,meteohub,2013-05-02 08:19:00,
2013-05-02 09:24:00,46.4,36.5,30.22,SSW,202,3.0,6.0,68,0.00,,,0.00,meteohub,2013-05-02 08:24:00,
2013-05-02 09:29:00,46.8,36.7,30.22,SSW,202,0.0,7.0,68,0.00,,,0.00,meteohub,2013-05-02 08:29:00,
2013-05-02 09:34:00,46.8,36.7,30.22,SSW,202,6.0,8.0,68,0.00,,,0.00,meteohub,2013-05-02 08:34:00,
2013-05-02 09:39:00,47.1,37.0,30.22,South,180,3.0,8.0,68,0.00,,,0.00,meteohub,2013-05-02 08:39:00,
2013-05-02 09:44:00,47.3,37.6,30.22,SW,225,3.0,8.0,69,0.00,,,0.00,meteohub,2013-05-02 08:44:00,
2013-05-02 09:49:00,47.5,37.8,30.22,SSW,202,4.0,8.0,69,0.00,,,0.00,meteohub,2013-05-02 08:49:00,
2013-05-02 09:54:00,47.7,37.6,30.22,SSW,202,4.0,8.0,68,0.00,,,0.00,meteohub,2013-05-02 08:54:00,
2013-05-02 09:59:00,47.7,37.2,30.22,SSW,202,6.0,8.0,67,0.00,,,0.00,meteohub,2013-05-02 08:59:00,
2013-05-02 10:04:00,47.8,37.0,30.22,SSW,202,8.0,8.0,66,0.00,,,0.00,meteohub,2013-05-02 09:04:00,
2013-05-02 10:10:00,48.0,36.9,30.22,South,180,4.0,8.0,65,0.00,,,0.00,meteohub,2013-05-02 09:10:00,
2013-05-02 10:15:00,48.2,37.0,30.22,SW,225,6.0,8.0,65,0.00,,,0.00,meteohub,2013-05-02 09:15:00,
2013-05-02 10:20:00,48.6,37.8,30.22,South,180,5.0,8.0,66,0.00,,,0.00,meteohub,2013-05-02 09:20:00,
2013-05-02 10:25:00,48.7,37.9,30.22,SSE,157,6.0,7.0,66,0.00,,,0.00,meteohub,2013-05-02 09:25:00,
2013-05-02 10:30:00,48.7,37.0,30.22,SSW,202,5.0,8.0,64,0.00,,,0.00,meteohub,2013-05-02 09:30:00,
2013-05-02 10:35:00,48.9,36.9,30.22,WSW,247,3.0,8.0,63,0.00,,,0.00,meteohub,2013-05-02 09:35:00,
2013-05-02 10:40:00,48.9,36.5,30.22,SSW,202,4.0,8.0,62,0.00,,,0.00,meteohub,2013-05-02 09:40:00,
2013-05-02 10:45:00,49.3,37.6,30.22,WSW,247,7.0,7.0,64,0.00,,,0.00,meteohub,2013-05-02 09:45:00,
2013-05-02 10:50:00,49.5,37.8,30.22,South,180,2.0,7.0,64,0.00,,,0.00,meteohub,2013-05-02 09:50:00,
2013-05-02 10:55:00,49.6,37.6,30.22,SSW,202,3.0,7.0,63,0.00,,,0.00,meteohub,2013-05-02 09:55:00,
2013-05-02 11:00:00,49.8,37.8,30.22,SW,225,4.0,7.0,63,0.00,,,0.00,meteohub,2013-05-02 10:00:00,
2013-05-02 11:06:00,50.0,37.9,30.22,WSW,247,6.0,6.0,63,0.00,,,0.00,meteohub,2013-05-02 10:06:00,
2013-05-02 11:11:00,50.0,37.0,30.22,SSW,202,5.0,6.0,61,0.00,,,0.00,meteohub,2013-05-02 10:11:00,
2013-05-02 11:16:00,50.0,36.7,30.22,SW,225,8.0,8.0,60,0.00,,,0.00,meteohub,2013-05-02 10:16:00,
2013-05-02 11:21:00,50.2,36.3,30.22,South,180,6.0,8.0,59,0.00,,,0.00,meteohub,2013-05-02 10:21:00,
2013-05-02 11:26:00,50.2,36.0,30.22,SSW,202,3.0,8.0,58,0.00,,,0.00,meteohub,2013-05-02 10:26:00,
2013-05-02 11:31:00,50.5,37.2,30.22,SSW,202,5.0,8.0,60,0.00,,,0.00,meteohub,2013-05-02 10:31:00,
2013-05-02 11:36:00,50.7,36.5,30.19,SW,225,3.0,8.0,58,0.00,,,0.00,meteohub,2013-05-02 10:36:00,
2013-05-02 11:41:00,50.9,36.1,30.19,SSW,202,7.0,8.0,57,0.00,,,0.00,meteohub,2013-05-02 10:41:00,
2013-05-02 11:46:00,50.9,35.8,30.19,SW,225,2.0,8.0,56,0.00,,,0.00,meteohub,2013-05-02 10:46:00,
2013-05-02 11:51:00,51.1,36.0,30.19,SSE,157,3.0,8.0,56,0.00,,,0.00,meteohub,2013-05-02 10:51:00,
2013-05-02 11:56:00,51.4,36.3,30.19,SSW,202,3.0,8.0,56,0.00,,,0.00,meteohub,2013-05-02 10:56:00,
2013-05-02 12:01:00,51.6,36.5,30.19,South,180,4.0,9.0,56,0.00,,,0.00,meteohub,2013-05-02 11:01:00,
2013-05-02 12:07:00,52.0,37.2,30.19,SSW,202,4.0,9.0,57,0.00,,,0.00,meteohub,2013-05-02 11:07:00,
2013-05-02 12:12:00,52.2,36.9,30.19,SSW,202,6.0,9.0,56,0.00,,,0.00,meteohub,2013-05-02 11:12:00,
2013-05-02 12:17:00,52.5,36.9,30.19,SSW,202,6.0,10.0,55,0.00,,,0.00,meteohub,2013-05-02 11:17:00,
2013-05-02 12:22:00,53.1,37.4,30.19,WSW,247,6.0,10.0,55,0.00,,,0.00,meteohub,2013-05-02 11:22:00,
2013-05-02 12:27:00,53.4,37.6,30.19,SW,225,5.0,10.0,55,0.00,,,0.00,meteohub,2013-05-02 11:27:00,
2013-05-02 12:32:00,53.6,36.9,30.19,WSW,247,3.0,10.0,53,0.00,,,0.00,meteohub,2013-05-02 11:32:00,
2013-05-02 12:37:00,54.1,37.9,30.19,SSW,202,11.0,11.0,54,0.00,,,0.00,meteohub,2013-05-02 11:37:00,
2013-05-02 12:43:00,54.5,36.7,30.19,SSW,202,4.0,11.0,51,0.00,,,0.00,meteohub,2013-05-02 11:43:00,
2013-05-02 12:48:00,55.2,38.3,30.19,WSW,247,8.0,11.0,53,0.00,,,0.00,meteohub,2013-05-02 11:48:00,
2013-05-02 12:53:00,55.8,38.8,30.19,SW,225,5.0,11.0,53,0.00,,,0.00,meteohub,2013-05-02 11:53:00,
2013-05-02 12:58:00,55.8,37.9,30.19,SSW,202,7.0,11.0,51,0.00,,,0.00,meteohub,2013-05-02 11:58:00,
2013-05-02 13:03:00,55.8,37.4,30.16,SSW,202,11.0,11.0,50,0.00,,,0.00,meteohub,2013-05-02 12:03:00,
2013-05-02 13:08:00,55.4,37.0,30.16,SW,225,10.0,12.0,50,0.00,,,0.00,meteohub,2013-05-02 12:08:00,
2013-05-02 13:13:00,55.0,36.1,30.16,SSE,157,6.0,15.0,49,0.00,,,0.00,meteohub,2013-05-02 12:13:00,
2013-05-02 13:19:00,54.9,36.1,30.16,SW,225,8.0,15.0,49,0.00,,,0.00,meteohub,2013-05-02 12:19:00,
2013-05-02 13:24:00,55.2,36.9,30.16,SSW,202,7.0,15.0,50,0.00,,,0.00,meteohub,2013-05-02 12:24:00,
2013-05-02 13:29:00,55.2,36.3,30.16,WSW,247,6.0,12.0,49,0.00,,,0.00,meteohub,2013-05-02 12:29:00,
2013-05-02 13:34:00,55.0,35.8,30.16,SW,225,7.0,12.0,48,0.00,,,0.00,meteohub,2013-05-02 12:34:00,
2013-05-02 13:39:00,54.9,35.1,30.16,South,180,9.0,13.0,47,0.00,,,0.00,meteohub,2013-05-02 12:39:00,
2013-05-02 13:44:00,55.0,35.8,30.16,SW,225,5.0,13.0,48,0.00,,,0.00,meteohub,2013-05-02 12:44:00,
2013-05-02 13:49:00,54.9,34.5,30.16,SW,225,6.0,13.0,46,0.00,,,0.00,meteohub,2013-05-02 12:49:00,
2013-05-02 13:54:00,55.0,35.2,30.16,SW,225,4.0,12.0,47,0.00,,,0.00,meteohub,2013-05-02 12:54:00,
2013-05-02 13:59:00,55.4,34.9,30.16,SW,225,4.0,12.0,46,0.00,,,0.00,meteohub,2013-05-02 12:59:00,
2013-05-02 14:04:00,55.6,34.5,30.16,WSW,247,10.0,12.0,45,0.00,,,0.00,meteohub,2013-05-02 13:04:00,
2013-05-02 14:10:00,55.8,35.2,30.16,SSW,202,10.0,12.0,46,0.00,,,0.00,meteohub,2013-05-02 13:10:00,
2013-05-02 14:15:00,56.1,35.1,30.16,SW,225,15.0,15.0,45,0.00,,,0.00,meteohub,2013-05-02 13:15:00,
2013-05-02 14:20:00,55.9,34.3,30.13,SSW,202,8.0,15.0,44,0.00,,,0.00,meteohub,2013-05-02 13:20:00,
2013-05-02 14:25:00,55.9,33.8,30.13,SSE,157,11.0,15.0,43,0.00,,,0.00,meteohub,2013-05-02 13:25:00,
2013-05-02 14:30:00,55.9,34.9,30.13,WSW,247,9.0,15.0,45,0.00,,,0.00,meteohub,2013-05-02 13:30:00,
2013-05-02 14:35:00,55.6,34.0,30.13,SW,225,12.0,15.0,44,0.00,,,0.00,meteohub,2013-05-02 13:35:00,
2013-05-02 14:40:00,55.4,34.3,30.13,SSW,202,6.0,15.0,45,0.00,,,0.00,meteohub,2013-05-02 13:40:00,
2013-05-02 14:45:00,55.2,34.2,30.13,SW,225,5.0,15.0,45,0.00,,,0.00,meteohub,2013-05-02 13:45:00,
2013-05-02 14:50:00,54.9,34.0,30.13,SW,225,6.0,15.0,45,0.00,,,0.00,meteohub,2013-05-02 13:50:00,
2013-05-02 14:55:00,54.7,34.3,30.13,SW,225,6.0,13.0,46,0.00,,,0.00,meteohub,2013-05-02 13:55:00,
2013-05-02 15:01:00,54.5,34.7,30.13,SSW,202,9.0,13.0,47,0.00,,,0.00,meteohub,2013-05-02 14:01:00,
2013-05-02 15:06:00,54.0,34.2,30.13,WSW,247,6.0,17.0,47,0.00,,,0.00,meteohub,2013-05-02 14:06:00,
2013-05-02 15:11:00,53.6,33.8,30.13,SSW,202,6.0,17.0,47,0.00,,,0.00,meteohub,2013-05-02 14:11:00,
2013-05-02 15:16:00,53.6,34.3,30.13,SSW,202,6.0,17.0,48,0.00,,,0.00,meteohub,2013-05-02 14:16:00,
2013-05-02 15:21:00,53.2,34.5,30.10,SW,225,9.0,13.0,49,0.00,,,0.00,meteohub,2013-05-02 14:21:00,
2013-05-02 15:26:00,53.1,34.3,30.10,SSW,202,14.0,15.0,49,0.00,,,0.00,meteohub,2013-05-02 14:26:00,
2013-05-02 15:31:00,52.9,34.2,30.10,SSW,202,12.0,15.0,49,0.00,,,0.00,meteohub,2013-05-02 14:31:00,
2013-05-02 15:36:00,53.1,34.9,30.10,WSW,247,10.0,15.0,50,0.00,,,0.00,meteohub,2013-05-02 14:36:00,
2013-05-02 15:41:00,53.1,34.9,30.10,SW,225,9.0,15.0,50,0.00,,,0.00,meteohub,2013-05-02 14:41:00,
2013-05-02 15:46:00,53.1,35.4,30.10,SW,225,5.0,15.0,51,0.00,,,0.00,meteohub,2013-05-02 14:46:00,
2013-05-02 15:51:00,53.1,34.9,30.10,SW,225,12.0,15.0,50,0.00,,,0.00,meteohub,2013-05-02 14:51:00,
2013-05-02 15:56:00,53.1,34.9,30.10,SSW,202,8.0,15.0,50,0.00,,,0.00,meteohub,2013-05-02 14:56:00,
2013-05-02 16:02:00,53.1,35.4,30.10,SW,225,13.0,16.0,51,0.00,,,0.00,meteohub,2013-05-02 15:02:00,
2013-05-02 16:07:00,53.1,35.4,30.10,South,180,8.0,16.0,51,0.00,,,0.00,meteohub,2013-05-02 15:07:00,
2013-05-02 16:12:00,53.1,36.0,30.10,SW,225,10.0,19.0,52,0.00,,,0.00,meteohub,2013-05-02 15:12:00,
2013-05-02 16:17:00,53.1,36.0,30.10,SW,225,16.0,19.0,52,0.00,,,0.00,meteohub,2013-05-02 15:17:00,
2013-05-02 16:22:00,53.2,36.5,30.10,WSW,247,13.0,19.0,53,0.00,,,0.00,meteohub,2013-05-02 15:22:00,
2013-05-02 16:27:00,53.6,36.9,30.10,SSW,202,6.0,17.0,53,0.00,,,0.00,meteohub,2013-05-02 15:27:00,
2013-05-02 16:32:00,53.8,37.0,30.10,WSW,247,11.0,19.0,53,0.00,,,0.00,meteohub,2013-05-02 15:32:00,
2013-05-02 16:37:00,54.0,37.2,30.07,SW,225,10.0,19.0,53,0.00,,,0.00,meteohub,2013-05-02 15:37:00,
2013-05-02 16:42:00,54.0,37.2,30.07,SW,225,6.0,20.0,53,0.00,,,0.00,meteohub,2013-05-02 15:42:00,
2013-05-02 16:47:00,54.1,37.4,30.07,SSW,202,9.0,20.0,53,0.00,,,0.00,meteohub,2013-05-02 15:47:00,
2013-05-02 16:52:00,54.5,37.8,30.07,SSE,157,6.0,20.0,53,0.00,,,0.00,meteohub,2013-05-02 15:52:00,
2013-05-02 16:57:00,54.9,38.1,30.07,WSW,247,10.0,15.0,53,0.00,,,0.00,meteohub,2013-05-02 15:57:00,
2013-05-02 17:02:00,54.7,37.4,30.07,WSW,247,10.0,19.0,52,0.00,,,0.00,meteohub,2013-05-02 16:02:00,
2013-05-02 17:07:00,54.5,37.2,30.07,SW,225,14.0,19.0,52,0.00,,,0.00,meteohub,2013-05-02 16:07:00,
2013-05-02 17:12:00,54.1,36.9,30.07,SSW,202,6.0,19.0,52,0.00,,,0.00,meteohub,2013-05-02 16:12:00,
2013-05-02 17:17:00,54.3,37.0,30.07,SSW,202,9.0,15.0,52,0.00,,,0.00,meteohub,2013-05-02 16:17:00,
2013-05-02 17:22:00,54.5,37.2,30.07,WSW,247,11.0,15.0,52,0.00,,,0.00,meteohub,2013-05-02 16:22:00,
2013-05-02 17:27:00,54.7,37.4,30.07,WSW,247,6.0,18.0,52,0.00,,,0.00,meteohub,2013-05-02 16:27:00,
2013-05-02 17:32:00,55.0,37.8,30.07,SSW,202,15.0,20.0,52,0.00,,,0.00,meteohub,2013-05-02 16:32:00,
2013-05-02 17:37:00,55.0,37.2,30.07,SW,225,8.0,20.0,51,0.00,,,0.00,meteohub,2013-05-02 16:37:00,
2013-05-02 17:42:00,55.0,37.2,30.07,SW,225,17.0,20.0,51,0.00,,,0.00,meteohub,2013-05-02 16:42:00,
2013-05-02 17:48:00,54.7,36.3,30.07,SW,225,12.0,20.0,50,0.00,,,0.00,meteohub,2013-05-02 16:48:00,
2013-05-02 17:53:00,54.5,36.3,30.04,WSW,247,6.0,20.0,50,0.00,,,0.00,meteohub,2013-05-02 16:53:00,
2013-05-02 17:58:00,54.5,36.7,30.04,WSW,247,15.0,20.0,51,0.00,,,0.00,meteohub,2013-05-02 16:58:00,
2013-05-02 18:03:00,54.3,36.1,30.04,SW,225,15.0,18.0,50,0.00,,,0.00,meteohub,2013-05-02 17:03:00,
2013-05-02 18:08:00,54.1,36.0,30.04,SW,225,11.0,18.0,50,0.00,,,0.00,meteohub,2013-05-02 17:08:00,
2013-05-02 18:13:00,53.8,35.6,30.04,WSW,247,13.0,18.0,50,0.00,,,0.00,meteohub,2013-05-02 17:13:00,
2013-05-02 18:18:00,53.8,36.1,30.04,SSW,202,14.0,18.0,51,0.00,,,0.00,meteohub,2013-05-02 17:18:00,
2013-05-02 18:23:00,53.6,35.4,30.04,WSW,247,8.0,18.0,50,0.00,,,0.00,meteohub,2013-05-02 17:23:00,
2013-05-02 18:28:00,53.6,36.0,30.04,SSW,202,12.0,17.0,51,0.00,,,0.00,meteohub,2013-05-02 17:28:00,
2013-05-02 18:33:00,53.6,36.0,30.04,SW,225,22.0,22.0,51,0.00,,,0.00,meteohub,2013-05-02 17:33:00,
2013-05-02 18:38:00,53.4,35.8,30.04,SSW,202,9.0,22.0,51,0.00,,,0.00,meteohub,2013-05-02 17:38:00,
2013-05-02 18:43:00,53.4,35.8,30.04,SW,225,11.0,22.0,51,0.00,,,0.00,meteohub,2013-05-02 17:43:00,
2013-05-02 18:49:00,53.4,35.8,30.04,SW,225,11.0,22.0,51,0.00,,,0.00,meteohub,2013-05-02 17:49:00,
2013-05-02 18:54:00,53.4,36.3,30.04,SSW,202,13.0,19.0,52,0.00,,,0.00,meteohub,2013-05-02 17:54:00,
2013-05-02 18:59:00,53.2,36.1,30.04,SW,225,13.0,19.0,52,0.00,,,0.00,meteohub,2013-05-02 17:59:00,
2013-05-02 19:04:00,53.1,36.0,30.04,SSW,202,6.0,15.0,52,0.00,,,0.00,meteohub,2013-05-02 18:04:00,
2013-05-02 19:09:00,52.9,36.3,30.04,SSW,202,10.0,15.0,53,0.00,,,0.00,meteohub,2013-05-02 18:09:00,
2013-05-02 19:14:00,52.7,36.0,30.04,WSW,247,11.0,13.0,53,0.00,,,0.00,meteohub,2013-05-02 18:14:00,
2013-05-02 19:19:00,52.3,36.7,30.04,SW,225,15.0,15.0,55,0.00,,,0.00,meteohub,2013-05-02 18:19:00,
2013-05-02 19:24:00,52.0,37.2,30.04,SW,225,9.0,22.0,57,0.00,,,0.00,meteohub,2013-05-02 18:24:00,
2013-05-02 19:29:00,51.8,37.9,30.04,SSW,202,6.0,22.0,59,0.00,,,0.00,meteohub,2013-05-02 18:29:00,
2013-05-02 19:34:00,51.4,38.5,30.04,SW,225,11.0,22.0,61,0.00,,,0.00,meteohub,2013-05-02 18:34:00,
2013-05-02 19:39:00,51.3,39.0,30.04,SW,225,11.0,18.0,63,0.00,,,0.00,meteohub,2013-05-02 18:39:00,
2013-05-02 19:45:00,51.1,39.4,30.04,SSW,202,8.0,13.0,64,0.00,,,0.00,meteohub,2013-05-02 18:45:00,
2013-05-02 19:50:00,50.5,39.2,30.04,WSW,247,8.0,13.0,65,0.00,,,0.00,meteohub,2013-05-02 18:50:00,
2013-05-02 19:55:00,50.4,39.7,30.04,SW,225,8.0,12.0,67,0.00,,,0.00,meteohub,2013-05-02 18:55:00,
2013-05-02 20:00:00,50.2,40.1,30.04,SSW,202,7.0,12.0,68,0.00,,,0.00,meteohub,2013-05-02 19:00:00,
2013-05-02 20:05:00,50.2,40.1,30.04,SSW,202,10.0,17.0,68,0.00,,,0.00,meteohub,2013-05-02 19:05:00,
2013-05-02 20:10:00,50.0,40.6,30.04,SW,225,13.0,17.0,70,0.00,,,0.00,meteohub,2013-05-02 19:10:00,
2013-05-02 20:15:00,49.8,40.5,30.04,SSW,202,8.0,17.0,70,0.00,,,0.00,meteohub,2013-05-02 19:15:00,
2013-05-02 20:20:00,49.6,40.6,30.01,SSW,202,10.0,15.0,71,0.00,,,0.00,meteohub,2013-05-02 19:20:00,
2013-05-02 20:25:00,49.5,40.8,30.01,SW,225,11.0,15.0,72,0.00,,,0.00,meteohub,2013-05-02 19:25:00,
2013-05-02 20:31:00,49.5,40.8,30.01,WSW,247,13.0,15.0,72,0.00,,,0.00,meteohub,2013-05-02 19:31:00,
2013-05-02 20:36:00,49.3,41.0,30.01,SSW,202,11.0,15.0,73,0.00,,,0.00,meteohub,2013-05-02 19:36:00,
2013-05-02 20:41:00,49.3,41.0,30.01,SSW,202,10.0,15.0,73,0.00,,,0.00,meteohub,2013-05-02 19:41:00,
2013-05-02 20:46:00,49.1,40.8,30.01,SW,225,8.0,15.0,73,0.00,,,0.00,meteohub,2013-05-02 19:46:00,
2013-05-02 20:51:00,49.1,40.8,30.01,SW,225,10.0,15.0,73,0.00,,,0.00,meteohub,2013-05-02 19:51:00,
2013-05-02 20:56:00,49.1,40.8,30.01,SW,225,12.0,15.0,73,0.00,,,0.00,meteohub,2013-05-02 19:56:00,
2013-05-02 21:01:00,49.1,40.8,30.01,SSW,202,8.0,15.0,73,0.00,,,0.00,meteohub,2013-05-02 20:01:00,
2013-05-02 21:06:00,49.1,40.8,30.01,SW,225,10.0,15.0,73,0.00,,,0.00,meteohub,2013-05-02 20:06:00,
2013-05-02 21:11:00,49.1,40.8,30.01,SW,225,6.0,14.0,73,0.00,,,0.00,meteohub,2013-05-02 20:11:00,
2013-05-02 21:16:00,49.1,40.8,30.01,SSW,202,10.0,14.0,73,0.00,,,0.00,meteohub,2013-05-02 20:16:00,
2013-05-02 21:21:00,48.9,40.6,30.01,South,180,11.0,14.0,73,0.00,,,0.00,meteohub,2013-05-02 20:21:00,
2013-05-02 21:27:00,48.9,40.6,30.01,SW,225,6.0,15.0,73,0.00,,,0.00,meteohub,2013-05-02 20:27:00,
2013-05-02 21:32:00,48.9,40.3,30.01,SW,225,5.0,15.0,72,0.00,,,0.00,meteohub,2013-05-02 20:32:00,
2013-05-02 21:37:00,48.7,40.5,30.01,SSW,202,11.0,17.0,73,0.00,,,0.00,meteohub,2013-05-02 20:37:00,
2013-05-02 21:42:00,48.7,40.5,30.01,SW,225,8.0,17.0,73,0.00,,,0.00,meteohub,2013-05-02 20:42:00,
2013-05-02 21:47:00,48.6,40.3,30.01,SW,225,13.0,17.0,73,0.00,,,0.00,meteohub,2013-05-02 20:47:00,
2013-05-02 21:52:00,48.6,40.3,29.98,SW,225,9.0,17.0,73,0.00,,,0.00,meteohub,2013-05-02 20:52:00,
2013-05-02 21:57:00,48.6,40.6,29.98,SW,225,7.0,17.0,74,0.00,,,0.00,meteohub,2013-05-02 20:57:00,
2013-05-02 22:02:00,48.6,40.6,29.98,SSW,202,7.0,15.0,74,0.00,,,0.00,meteohub,2013-05-02 21:02:00,
2013-05-02 22:07:00,48.6,40.3,29.98,SSW,202,9.0,17.0,73,0.00,,,0.00,meteohub,2013-05-02 21:07:00,
2013-05-02 22:12:00,49.8,40.8,29.98,WSW,247,8.0,17.0,71,0.00,,,0.00,meteohub,2013-05-02 21:12:00,
2013-05-02 22:17:00,48.6,40.6,29.98,SSW,202,7.0,17.0,74,0.00,,,0.00,meteohub,2013-05-02 21:17:00,
2013-05-02 22:22:00,49.8,40.8,29.98,SW,225,9.0,13.0,71,0.00,,,0.00,meteohub,2013-05-02 21:22:00,
2013-05-02 22:27:00,48.6,40.6,29.98,SW,225,10.0,18.0,74,0.00,,,0.00,meteohub,2013-05-02 21:27:00,
2013-05-02 22:32:00,48.4,40.5,29.98,SW,225,11.0,18.0,74,0.00,,,0.00,meteohub,2013-05-02 21:32:00,
2013-05-02 22:37:00,48.4,40.8,29.98,SW,225,9.0,18.0,75,0.00,,,0.00,meteohub,2013-05-02 21:37:00,
2013-05-02 22:43:00,48.2,41.0,29.98,SW,225,6.0,16.0,76,0.00,,,0.01,meteohub,2013-05-02 21:43:00,
2013-05-02 22:48:00,48.2,41.0,29.98,SW,225,11.0,16.0,76,0.00,,,0.01,meteohub,2013-05-02 21:48:00,
2013-05-02 22:53:00,48.2,41.4,29.98,WSW,247,15.0,16.0,77,0.00,,,0.01,meteohub,2013-05-02 21:53:00,
2013-05-02 22:58:00,48.0,41.5,29.98,SW,225,13.0,15.0,78,0.00,,,0.01,meteohub,2013-05-02 21:58:00,
2013-05-02 23:03:00,48.0,42.1,29.98,SW,225,9.0,15.0,80,0.00,,,0.01,meteohub,2013-05-02 22:03:00,
2013-05-02 23:08:00,47.8,41.7,29.98,SSW,202,10.0,15.0,79,0.00,,,0.01,meteohub,2013-05-02 22:08:00,
2013-05-02 23:13:00,47.8,41.9,29.98,SW,225,7.0,15.0,80,0.01,,,0.02,meteohub,2013-05-02 22:13:00,
2013-05-02 23:18:00,47.8,41.9,29.98,SSW,202,11.0,15.0,80,0.01,,,0.02,meteohub,2013-05-02 22:18:00,
2013-05-02 23:23:00,47.7,42.1,29.98,SW,225,11.0,15.0,81,0.01,,,0.02,meteohub,2013-05-02 22:23:00,
2013-05-02 23:28:00,47.7,42.4,29.98,WSW,247,6.0,15.0,82,0.01,,,0.02,meteohub,2013-05-02 22:28:00,
2013-05-02 23:34:00,47.7,42.8,29.98,SW,225,5.0,13.0,83,0.01,,,0.02,meteohub,2013-05-02 22:34:00,
2013-05-02 23:39:00,47.7,43.0,29.98,WSW,247,8.0,13.0,84,0.01,,,0.02,meteohub,2013-05-02 22:39:00,
2013-05-02 23:44:00,47.7,43.0,29.98,WSW,247,11.0,18.0,84,0.00,,,0.02,meteohub,2013-05-02 22:44:00,
2013-05-02 23:49:00,47.7,43.3,29.95,SW,225,13.0,18.0,85,0.00,,,0.02,meteohub,2013-05-02 22:49:00,
2013-05-02 23:54:00,47.7,43.3,29.95,SW,225,9.0,18.0,85,0.00,,,0.02,meteohub,2013-05-02 22:54:00,
2013-05-02 23:59:00,47.7,43.7,29.95,SW,225,11.0,15.0,86,0.00,,,0.02,meteohub,2013-05-02 22:59:00,